Aviation Digital Data Service (ADDS)

Output produced by METARs form (1529 UTC 16 February 2019)
found at http://aviationweather.gov/metar/data/
 
METAR text: KHDN 161522Z AUTO 26011KT 3SM -SN BR FEW009 BKN020 OVC036 M07/M08 A2966 RMK AO2 P0000 FZRANO
Conditions at: KHDN (HAYDEN/YAMPA , CO, US) observed 1522 UTC 16 February 2019
Temperature: -7.0°C (19°F)
Dewpoint: -8.0°C (18°F) [RH = 93%]
Pressure (altimeter): 29.66 inches Hg (1004.5 mb)
Winds: from the W (260 degrees) at 13 MPH (11 knots; 5.7 m/s)
Visibility: 3 miles ( 5 km)
Ceiling: 2000 feet AGL
Clouds: few clouds at 900 feet AGL
broken clouds at 2000 feet AGL
overcast cloud deck at 3600 feet AGL
Weather: -SN BR  (light snow, mist)

METAR text: KHDN 161513Z AUTO 26011KT 2SM -SN BR FEW009 BKN013 OVC019 M07/M08 A2966 RMK AO2 P0000 FZRANO
Conditions at: KHDN (HAYDEN/YAMPA , CO, US) observed 1513 UTC 16 February 2019
Temperature: -7.0°C (19°F)
Dewpoint: -8.0°C (18°F) [RH = 93%]
Pressure (altimeter): 29.66 inches Hg (1004.5 mb)
Winds: from the W (260 degrees) at 13 MPH (11 knots; 5.7 m/s)
Visibility: 2.00 miles (3.22 km)
Ceiling: 1300 feet AGL
Clouds: few clouds at 900 feet AGL
broken clouds at 1300 feet AGL
overcast cloud deck at 1900 feet AGL
Weather: -SN BR  (light snow, mist)

METAR text: KHDN 161507Z AUTO 25010KT 1SM -SN BR BKN011 OVC018 M07/M08 A2966 RMK AO2 P0000 FZRANO
Conditions at: KHDN (HAYDEN/YAMPA , CO, US) observed 1507 UTC 16 February 2019
Temperature: -7.0°C (19°F)
Dewpoint: -8.0°C (18°F) [RH = 93%]
Pressure (altimeter): 29.66 inches Hg (1004.5 mb)
Winds: from the WSW (250 degrees) at 12 MPH (10 knots; 5.1 m/s)
Visibility: 1.00 miles (1.61 km)
Ceiling: 1100 feet AGL
Clouds: broken clouds at 1100 feet AGL
overcast cloud deck at 1800 feet AGL
Weather: -SN BR  (light snow, mist)

METAR text: KHDN 161456Z AUTO 28007KT 1/2SM SN FZFG OVC011 M07/M08 A2964 RMK AO2 SLP058 P0000 60000 T10671078 53011 FZRANO
Conditions at: KHDN (HAYDEN/YAMPA , CO, US) observed 1456 UTC 16 February 2019
Temperature: -6.7°C (20°F)
Dewpoint: -7.8°C (18°F) [RH = 92%]
Pressure (altimeter): 29.64 inches Hg (1003.8 mb)
[Sea-level pressure: 1005.8 mb]
Winds: from the W (280 degrees) at 8 MPH (7 knots; 3.6 m/s)
Visibility: 0.50 miles (0.80 km)
Ceiling: 1100 feet AGL
Clouds: overcast cloud deck at 1100 feet AGL
Weather: SN FZFG  (moderate snow, freezing fog)

Forecast for: KHDN (HAYDEN/YAMPA , CO, US)
Text: KHDN 161340Z 1614/1712 27015KT 2SM -SN BR FEW009 OVC016
Forecast period: 1400 to 1600 UTC 16 February 2019
Forecast type: FROM: standard forecast or significant change
Winds: from the W (270 degrees) at 17 MPH (15 knots; 7.7 m/s)
Visibility: 2.00 miles (3.22 km)
Ceiling: 1600 feet AGL
Clouds: few clouds at 900 feet AGL
overcast cloud deck at 1600 feet AGL
Weather: -SN BR  (light snow, mist)
Text: TEMPO 1614/1616 29015G25KT 1SM -SN BR OVC009
Forecast period: 1400 to 1600 UTC 16 February 2019
Forecast type: TEMPORARY: The following changes expected for less than half the time period
Winds: from the WNW (290 degrees) at 17 MPH (15 knots; 7.7 m/s)
gusting to 29 MPH (25 knots; 12.9 m/s)
Visibility: 1.00 miles (1.61 km)
Ceiling: 900 feet AGL
Clouds: overcast cloud deck at 900 feet AGL
Weather: -SN BR  (light snow, mist)
Text: FM161600 28012KT 5SM -SN BKN020 OVC030
Forecast period: 1600 to 2100 UTC 16 February 2019
Forecast type: FROM: standard forecast or significant change
Winds: from the W (280 degrees) at 14 MPH (12 knots; 6.2 m/s)
Visibility: 5 miles (8 km)
Ceiling: 2000 feet AGL
Clouds: broken clouds at 2000 feet AGL
overcast cloud deck at 3000 feet AGL
Weather: -SN  (light snow)
Text: FM162100 30012G20KT P6SM VCSH SCT020 BKN060
Forecast period: 2100 UTC 16 February 2019 to 0200 UTC 17 February 2019
Forecast type: FROM: standard forecast or significant change
Winds: from the WNW (300 degrees) at 14 MPH (12 knots; 6.2 m/s)
gusting to 23 MPH (20 knots; 10.3 m/s)
Visibility: 6 or more miles 10+ km)
Ceiling: 6000 feet AGL
Clouds: scattered clouds at 2000 feet AGL
broken clouds at 6000 feet AGL
Weather: VCSH  (showers in vicinity)
Text: FM170200 28005KT P6SM BKN070
Forecast period: 0200 to 1200 UTC 17 February 2019
Forecast type: FROM: standard forecast or significant change
Winds: from the W (280 degrees) at 6 MPH (5 knots; 2.6 m/s)
Visibility: 6 or more miles 10+ km)
Ceiling: 7000 feet AGL
Clouds: broken clouds at 7000 feet AGL
Weather: no significant weather forecast for this period